Time;durP1;ratioP1;P1;durP2;ratioP2;P2;SDS_P1;SDS_P2;PMS_P1;PMS_P2;Temp;Humidity;BMP_temperature;BMP_pressure;BME280_temperature;BME280_humidity;BME280_pressure;Samples;Min_cycle;Max_cycle;Signal;HPM_P1;HPM_P2
2024/04/25 00:01:10;;;;;;;5.70;4.37;;;3.50;99.90;;;;;;5282094;27;20305;-69
2024/04/25 00:03:36;;;;;;;5.43;4.93;;;3.50;99.90;;;;;;5289370;27;20286;-70
2024/04/25 00:06:01;;;;;;;7.03;4.83;;;3.40;99.90;;;;;;5282395;26;20270;-69
2024/04/25 00:08:27;;;;;;;6.00;5.03;;;3.40;99.90;;;;;;5288787;27;20750;-69
2024/04/25 00:10:53;;;;;;;7.97;5.03;;;3.40;99.90;;;;;;5305980;27;20230;-69
2024/04/25 00:13:21;;;;;;;5.37;4.43;;;3.40;99.90;;;;;;5300000;26;20847;-70
2024/04/25 00:15:47;;;;;;;5.40;4.90;;;3.40;99.90;;;;;;5306102;27;20287;-69
2024/04/25 00:18:12;;;;;;;10.10;5.57;;;3.40;99.90;;;;;;5307263;26;20461;-69
2024/04/25 00:20:38;;;;;;;5.30;4.73;;;3.40;99.90;;;;;;5294639;26;20605;-69
2024/04/25 00:23:03;;;;;;;9.50;5.23;;;3.40;99.90;;;;;;5312757;26;20211;-69
2024/04/25 00:25:29;;;;;;;4.20;3.80;;;3.40;99.90;;;;;;5285684;26;20269;-69
2024/04/25 00:27:58;;;;;;;6.20;4.30;;;3.40;99.90;;;;;;5278916;27;20223;-70
2024/04/25 00:30:24;;;;;;;5.80;4.20;;;3.30;99.90;;;;;;5301371;27;20218;-69
2024/04/25 00:32:52;;;;;;;4.53;4.03;;;3.30;99.90;;;;;;5312650;26;20457;-69
2024/04/25 00:35:18;;;;;;;5.80;5.20;;;3.20;99.90;;;;;;5308888;27;20229;-69
2024/04/25 00:37:43;;;;;;;7.67;4.43;;;3.20;99.90;;;;;;5278189;27;20450;-70
2024/04/25 00:40:09;;;;;;;5.10;4.63;;;3.20;99.90;;;;;;5306050;26;20529;-69
2024/04/25 00:42:36;;;;;;;5.33;4.83;;;3.20;99.90;;;;;;5279719;26;20273;-70
2024/04/25 00:45:02;;;;;;;6.00;5.40;;;3.10;99.90;;;;;;5280574;27;20466;-69
2024/04/25 00:47:28;;;;;;;5.60;4.17;;;3.10;99.90;;;;;;5278182;27;20838;-69
2024/04/25 00:49:55;;;;;;;6.33;5.63;;;3.10;99.90;;;;;;5290791;27;20700;-69
2024/04/25 00:52:22;;;;;;;5.30;4.80;;;3.10;99.90;;;;;;5279494;26;20531;-70
2024/04/25 00:54:48;;;;;;;6.00;5.40;;;3.10;99.90;;;;;;5285098;27;20575;-69
2024/04/25 00:57:14;;;;;;;6.73;5.33;;;3.10;99.90;;;;;;5304869;26;20820;-69
2024/04/25 00:59:54;;;;;;;5.37;4.87;;;3.10;99.90;;;;;;5282789;26;20223;-69
2024/04/25 01:02:20;;;;;;;5.03;4.60;;;3.00;99.90;;;;;;5279013;27;20841;-69
2024/04/25 01:04:48;;;;;;;5.43;4.73;;;3.10;99.90;;;;;;5288047;27;20481;-69
2024/04/25 01:07:15;;;;;;;5.00;4.13;;;3.10;99.90;;;;;;5298261;27;20586;-69
2024/04/25 01:09:40;;;;;;;7.63;5.50;;;3.10;99.90;;;;;;5296868;26;20462;-70
2024/04/25 01:12:07;;;;;;;5.20;4.80;;;3.20;99.90;;;;;;5299285;27;20517;-69
2024/04/25 01:14:33;;;;;;;6.10;5.50;;;3.20;99.90;;;;;;5299233;26;21088;-69
2024/04/25 01:16:58;;;;;;;5.77;5.00;;;3.20;99.90;;;;;;5297919;27;20512;-70
2024/04/25 01:19:24;;;;;;;5.97;5.10;;;3.20;99.90;;;;;;5278260;27;20462;-69
2024/04/25 01:21:50;;;;;;;4.90;4.50;;;3.30;99.90;;;;;;5282516;27;20274;-70
2024/04/25 01:24:23;;;;;;;8.47;4.80;;;3.30;99.90;;;;;;5278336;27;20612;-69
2024/04/25 01:26:49;;;;;;;6.33;5.50;;;3.30;99.90;;;;;;5279657;27;21114;-69
2024/04/25 01:29:16;;;;;;;6.00;5.37;;;3.30;99.90;;;;;;5298488;27;20513;-70
2024/04/25 01:31:43;;;;;;;6.67;4.90;;;3.40;99.90;;;;;;5284724;27;20470;-69
2024/04/25 01:34:09;;;;;;;5.97;5.30;;;3.40;99.90;;;;;;5277765;27;20462;-70
2024/04/25 01:36:37;;;;;;;9.50;5.53;;;3.40;99.90;;;;;;5277924;27;20462;-69
2024/04/25 01:39:05;;;;;;;6.00;4.50;;;3.40;99.90;;;;;;5279822;27;20231;-70
2024/04/25 01:41:30;;;;;;;6.20;5.37;;;3.50;99.90;;;;;;5290635;27;20465;-69
2024/04/25 01:43:56;;;;;;;5.70;4.50;;;3.50;99.90;;;;;;5311371;26;20526;-70
2024/04/25 01:46:21;;;;;;;6.30;5.20;;;3.50;99.90;;;;;;5307920;26;20226;-70
2024/04/25 01:48:47;;;;;;;6.33;5.13;;;3.50;99.90;;;;;;5310602;26;20234;-69
2024/04/25 01:51:13;;;;;;;7.63;4.93;;;3.50;99.90;;;;;;5300152;27;20278;-70
2024/04/25 01:53:38;;;;;;;7.30;5.67;;;3.50;99.90;;;;;;5284780;27;20273;-70
2024/04/25 01:56:04;;;;;;;5.80;5.20;;;3.60;99.90;;;;;;5305260;27;20276;-69
2024/04/25 01:58:29;;;;;;;4.73;4.20;;;3.60;99.90;;;;;;5286391;26;20269;-69
2024/04/25 02:00:55;;;;;;;6.63;5.00;;;3.60;99.90;;;;;;5303251;26;20796;-68
2024/04/25 02:03:20;;;;;;;6.47;5.03;;;3.60;99.90;;;;;;5288151;26;20294;-69
2024/04/25 02:05:46;;;;;;;6.83;5.17;;;3.60;99.90;;;;;;5277886;27;20223;-70
2024/04/25 02:08:12;;;;;;;5.60;5.00;;;3.60;99.90;;;;;;5276980;27;20771;-69
2024/04/25 02:10:37;;;;;;;6.07;4.83;;;3.70;99.90;;;;;;5287468;27;20227;-68
2024/04/25 02:13:03;;;;;;;5.10;4.70;;;3.70;99.90;;;;;;5303220;27;20323;-68
2024/04/25 02:15:29;;;;;;;6.70;6.03;;;3.70;99.90;;;;;;5283077;27;20222;-69
2024/04/25 02:17:54;;;;;;;5.83;5.00;;;3.70;99.90;;;;;;5311043;26;20264;-69
2024/04/25 02:25:48;;;;;;;6.57;4.50;;;3.60;99.90;;;;;;5277282;27;20891;-69
2024/04/25 02:28:14;;;;;;;4.70;4.30;;;3.60;99.90;;;;;;5303459;27;20469;-69
2024/04/25 02:30:39;;;;;;;7.50;4.77;;;3.50;99.90;;;;;;5294411;26;20362;-69
2024/04/25 02:33:05;;;;;;;5.40;4.83;;;3.50;99.90;;;;;;5286364;27;20219;-69
2024/04/25 02:35:30;;;;;;;5.73;5.00;;;3.40;99.90;;;;;;5291620;27;20238;-69
2024/04/25 02:37:56;;;;;;;5.90;5.27;;;3.40;99.90;;;;;;5303005;26;20272;-69
2024/04/25 02:40:21;;;;;;;5.83;5.33;;;3.40;99.90;;;;;;5285219;26;20234;-69
2024/04/25 02:42:47;;;;;;;5.90;5.20;;;3.30;99.90;;;;;;5281494;27;20223;-69
2024/04/25 02:45:12;;;;;;;8.50;5.40;;;3.30;99.90;;;;;;5281094;27;20618;-69
2024/04/25 02:47:38;;;;;;;5.40;4.90;;;3.30;99.90;;;;;;5295776;26;20223;-70
2024/04/25 02:50:03;;;;;;;7.00;6.27;;;3.30;99.90;;;;;;5289906;27;20243;-69
2024/04/25 02:52:29;;;;;;;6.30;5.70;;;3.30;99.90;;;;;;5290297;27;20234;-69
2024/04/25 02:54:56;;;;;;;8.30;6.20;;;3.40;99.90;;;;;;5298214;26;20269;-69
2024/04/25 02:57:22;;;;;;;6.97;6.27;;;3.30;99.90;;;;;;5278351;27;20332;-69
2024/04/25 02:59:48;;;;;;;6.70;5.70;;;3.30;99.90;;;;;;5295475;27;21001;-68
2024/04/25 03:02:13;;;;;;;7.33;6.67;;;3.30;99.90;;;;;;5284121;27;20503;-69
2024/04/25 03:04:39;;;;;;;8.70;6.67;;;3.30;99.90;;;;;;5307174;27;20230;-69
2024/04/25 03:07:04;;;;;;;6.70;5.67;;;3.20;99.90;;;;;;5284794;26;20235;-69
2024/04/25 03:09:30;;;;;;;6.90;6.30;;;3.20;99.90;;;;;;5284123;26;20273;-69
2024/04/25 03:11:56;;;;;;;7.23;6.37;;;3.20;99.90;;;;;;5309313;26;20655;-68
2024/04/25 03:14:21;;;;;;;7.03;6.33;;;3.20;99.90;;;;;;5307782;26;20581;-68
2024/04/25 03:16:47;;;;;;;7.60;6.90;;;3.20;99.90;;;;;;5307646;27;20222;-68
2024/04/25 03:19:13;;;;;;;9.83;7.13;;;3.30;99.90;;;;;;5283691;26;20458;-69
2024/04/25 03:21:39;;;;;;;9.73;6.73;;;3.30;99.90;;;;;;5307760;26;20218;-68
2024/04/25 03:24:05;;;;;;;9.77;6.97;;;3.30;99.90;;;;;;5296499;26;20461;-68
2024/04/25 03:26:30;;;;;;;8.37;6.53;;;3.30;99.90;;;;;;5303066;26;20238;-69
2024/04/25 03:28:55;;;;;;;11.50;7.27;;;3.30;99.90;;;;;;5308316;27;20225;-68
2024/04/25 03:31:21;;;;;;;10.33;7.77;;;3.30;99.90;;;;;;5286168;26;20243;-69
2024/04/25 03:33:47;;;;;;;8.17;7.37;;;3.30;99.90;;;;;;5299050;26;20584;-68
2024/04/25 03:36:12;;;;;;;10.40;7.90;;;3.40;99.90;;;;;;5290818;27;20227;-68
2024/04/25 03:38:37;;;;;;;8.83;7.37;;;3.30;99.90;;;;;;5281786;27;20226;-69
2024/04/25 03:41:03;;;;;;;7.80;7.00;;;3.30;99.90;;;;;;5306281;27;20718;-68
2024/04/25 03:43:29;;;;;;;8.10;7.10;;;3.30;99.90;;;;;;5290728;27;20218;-69
2024/04/25 03:45:54;;;;;;;10.33;7.00;;;3.30;99.90;;;;;;5292556;26;20696;-68
2024/04/25 03:48:20;;;;;;;7.73;6.93;;;3.20;99.90;;;;;;5301309;26;20227;-68
2024/04/25 03:50:45;;;;;;;8.23;6.80;;;3.20;99.90;;;;;;5293571;27;20705;-68
2024/04/25 03:53:11;;;;;;;10.93;6.77;;;3.20;99.90;;;;;;5309938;27;20271;-68
2024/04/25 03:55:36;;;;;;;10.77;7.97;;;3.20;99.90;;;;;;5294176;26;20230;-69
2024/04/25 03:58:02;;;;;;;10.23;8.10;;;3.20;99.90;;;;;;5309021;27;20218;-68
2024/04/25 04:00:28;;;;;;;8.63;7.30;;;3.20;99.90;;;;;;5295484;27;20239;-69
2024/04/25 04:02:53;;;;;;;7.40;6.60;;;3.30;99.90;;;;;;5281273;27;20515;-69
2024/04/25 04:05:19;;;;;;;11.00;6.83;;;3.20;99.90;;;;;;5299090;27;20361;-68
2024/04/25 04:07:45;;;;;;;11.67;7.43;;;3.30;99.90;;;;;;5304256;27;20260;-68
2024/04/25 04:10:11;;;;;;;13.63;8.20;;;3.30;99.90;;;;;;5298757;26;20446;-69
2024/04/25 04:12:36;;;;;;;10.10;7.53;;;3.30;99.90;;;;;;5294785;27;20215;-69
2024/04/25 04:15:02;;;;;;;8.13;7.33;;;3.30;99.90;;;;;;5294208;27;20604;-68
2024/04/25 04:17:29;;;;;;;9.80;7.93;;;3.30;99.90;;;;;;5309775;26;20253;-69
2024/04/25 04:19:56;;;;;;;14.23;8.30;;;3.40;99.90;;;;;;5312627;26;20222;-69
2024/04/25 04:22:21;;;;;;;9.80;7.83;;;3.40;99.90;;;;;;5312306;26;20508;-69
2024/04/25 04:24:47;;;;;;;11.30;8.00;;;3.40;99.90;;;;;;5297686;26;20466;-68
2024/04/25 04:27:12;;;;;;;10.10;7.03;;;3.40;99.90;;;;;;5295352;27;20231;-69
2024/04/25 04:29:38;;;;;;;15.03;8.20;;;3.40;99.90;;;;;;5280411;27;20247;-68
2024/04/25 04:32:03;;;;;;;15.50;8.43;;;3.50;99.90;;;;;;5280974;27;20281;-68
2024/04/25 04:34:29;;;;;;;9.13;7.93;;;3.50;99.90;;;;;;5280567;27;20223;-69
2024/04/25 04:36:54;;;;;;;8.40;7.50;;;3.50;99.90;;;;;;5304385;27;20272;-69
2024/04/25 04:39:21;;;;;;;9.93;8.10;;;3.60;99.90;;;;;;5302983;26;20301;-69
2024/04/25 04:41:47;;;;;;;10.93;8.27;;;3.60;99.90;;;;;;5288958;26;20281;-69
2024/04/25 04:44:13;;;;;;;9.00;7.43;;;3.60;99.90;;;;;;5292723;26;20453;-68
2024/04/25 04:46:39;;;;;;;11.90;9.40;;;3.60;99.90;;;;;;5288532;27;20266;-68
2024/04/25 04:49:04;;;;;;;8.93;8.10;;;3.60;99.90;;;;;;5278340;27;20431;-69
2024/04/25 04:51:30;;;;;;;10.50;8.37;;;3.60;99.90;;;;;;5278263;27;20250;-70
2024/04/25 04:53:56;;;;;;;9.63;8.40;;;3.60;99.90;;;;;;5279315;27;20760;-69
2024/04/25 04:56:21;;;;;;;8.97;7.90;;;3.60;99.90;;;;;;5281736;26;20264;-68
2024/04/25 04:58:47;;;;;;;9.83;7.77;;;3.70;99.90;;;;;;5291298;26;20254;-69
2024/04/25 05:01:13;;;;;;;10.77;8.03;;;3.70;99.90;;;;;;5284911;27;20272;-69
2024/04/25 05:03:38;;;;;;;8.83;7.93;;;3.60;99.90;;;;;;5291860;27;20222;-68
2024/04/25 05:06:05;;;;;;;9.37;7.80;;;3.70;99.90;;;;;;5306720;26;20222;-69
2024/04/25 05:08:31;;;;;;;9.17;8.00;;;3.70;99.90;;;;;;5312045;26;20202;-69
2024/04/25 05:10:57;;;;;;;8.80;7.13;;;3.70;99.90;;;;;;5289486;26;20470;-69
2024/04/25 05:13:23;;;;;;;9.60;8.60;;;3.70;99.90;;;;;;5276767;27;20591;-69
2024/04/25 05:15:48;;;;;;;8.43;7.63;;;3.70;99.90;;;;;;5288471;27;20923;-69
2024/04/25 05:18:14;;;;;;;8.60;7.77;;;3.70;99.90;;;;;;5310584;27;20223;-69
2024/04/25 05:20:39;;;;;;;8.33;7.40;;;3.80;99.90;;;;;;5314715;26;20267;-69
2024/04/25 05:23:05;;;;;;;12.30;8.70;;;3.80;99.90;;;;;;5320084;26;20825;-69
2024/04/25 05:25:30;;;;;;;11.80;9.53;;;3.80;99.90;;;;;;5310222;26;20960;-69
2024/04/25 05:27:56;;;;;;;8.97;7.57;;;3.90;99.90;;;;;;5298472;26;20227;-69
2024/04/25 05:30:22;;;;;;;8.07;6.90;;;3.90;99.90;;;;;;5297234;27;20958;-69
2024/04/25 05:32:49;;;;;;;8.50;7.50;;;4.00;99.90;;;;;;5277912;27;20281;-69
2024/04/25 05:35:15;;;;;;;10.93;8.90;;;4.00;99.90;;;;;;5292003;27;20993;-70
2024/04/25 05:37:40;;;;;;;12.20;8.43;;;4.00;99.90;;;;;;5309197;26;20510;-69
2024/04/25 05:40:08;;;;;;;8.43;7.07;;;4.00;99.90;;;;;;5311547;26;20465;-68
2024/04/25 05:42:34;;;;;;;8.40;7.50;;;4.00;99.90;;;;;;5280434;26;20223;-69
2024/04/25 05:45:00;;;;;;;7.90;6.80;;;4.10;99.90;;;;;;5283502;27;20518;-68
2024/04/25 05:47:25;;;;;;;14.33;8.27;;;4.10;99.90;;;;;;5306223;26;20578;-70
2024/04/25 05:49:51;;;;;;;9.70;8.70;;;4.20;99.90;;;;;;5295619;26;20232;-68
2024/04/25 05:52:18;;;;;;;7.97;7.10;;;4.20;99.90;;;;;;5307832;26;20365;-69
2024/04/25 05:54:44;;;;;;;17.07;7.30;;;4.30;99.90;;;;;;5299580;27;20231;-69
2024/04/25 05:57:09;;;;;;;8.37;6.97;;;4.30;99.90;;;;;;5296752;27;21064;-69
2024/04/25 05:59:35;;;;;;;11.27;7.73;;;4.40;99.90;;;;;;5277158;27;20231;-70
2024/04/25 06:02:02;;;;;;;9.57;7.80;;;4.40;99.90;;;;;;5290186;27;20589;-69
2024/04/25 06:04:30;;;;;;;15.13;9.30;;;4.40;99.90;;;;;;5279326;27;20223;-69
2024/04/25 06:06:56;;;;;;;8.97;7.77;;;4.40;99.90;;;;;;5285987;27;20941;-69
2024/04/25 06:09:21;;;;;;;11.90;8.67;;;4.50;99.90;;;;;;5290081;26;20561;-69
2024/04/25 06:11:47;;;;;;;9.73;8.13;;;4.50;99.90;;;;;;5304736;27;20719;-69
2024/04/25 06:14:12;;;;;;;8.83;7.63;;;4.50;99.90;;;;;;5277575;27;20265;-69
2024/04/25 06:16:38;;;;;;;10.80;7.70;;;4.50;99.90;;;;;;5302921;27;20327;-69
2024/04/25 06:19:04;;;;;;;9.03;6.97;;;4.60;99.90;;;;;;5282071;26;20262;-69
2024/04/25 06:21:30;;;;;;;14.27;7.50;;;4.70;99.90;;;;;;5303273;27;20604;-69
2024/04/25 06:23:55;;;;;;;9.93;8.10;;;4.80;99.90;;;;;;5283270;27;20512;-68
2024/04/25 06:26:21;;;;;;;22.50;14.13;;;4.90;99.90;;;;;;5300692;26;20218;-69
2024/04/25 06:28:47;;;;;;;7.60;6.90;;;4.90;99.90;;;;;;5286156;27;20764;-70
2024/04/25 06:31:12;;;;;;;9.90;7.07;;;5.00;99.90;;;;;;5284172;27;20530;-70
2024/04/25 06:33:39;;;;;;;9.10;7.30;;;5.10;99.90;;;;;;5280822;27;20227;-68
2024/04/25 06:36:05;;;;;;;8.33;6.87;;;5.10;99.90;;;;;;5295563;27;20274;-69
2024/04/25 06:38:31;;;;;;;8.00;6.67;;;5.10;99.90;;;;;;5288782;27;20441;-69
2024/04/25 06:40:56;;;;;;;7.33;6.63;;;5.20;99.90;;;;;;5301462;26;20457;-70
2024/04/25 06:43:22;;;;;;;7.23;6.53;;;5.30;99.90;;;;;;5300897;27;20226;-70
2024/04/25 06:45:47;;;;;;;7.13;6.10;;;5.40;99.90;;;;;;5297227;26;20337;-69
2024/04/25 06:48:13;;;;;;;7.13;6.20;;;5.60;99.90;;;;;;5306710;26;20222;-69
2024/04/25 06:50:39;;;;;;;6.30;5.40;;;5.70;99.90;;;;;;5298854;26;20238;-71
2024/04/25 06:53:05;;;;;;;5.53;5.13;;;5.80;99.90;;;;;;5304680;26;20281;-71
2024/04/25 06:55:31;;;;;;;6.80;5.77;;;5.90;99.90;;;;;;5279718;27;20454;-69
2024/04/25 06:57:57;;;;;;;6.63;5.93;;;6.10;99.90;;;;;;5280373;27;20214;-69
2024/04/25 07:00:22;;;;;;;4.80;4.33;;;6.30;99.90;;;;;;5292508;26;20546;-69
2024/04/25 07:02:48;;;;;;;7.37;5.20;;;6.50;99.90;;;;;;5306807;26;20226;-69
2024/04/25 07:05:14;;;;;;;4.63;4.23;;;6.70;99.90;;;;;;5303453;26;20226;-69
2024/04/25 07:07:39;;;;;;;6.67;5.70;;;6.90;99.90;;;;;;5280378;27;20231;-69
2024/04/25 07:10:05;;;;;;;5.00;4.50;;;6.90;99.90;;;;;;5280075;27;20778;-69
2024/04/25 07:12:32;;;;;;;5.40;3.70;;;7.10;99.90;;;;;;5276304;27;20837;-69
2024/04/25 07:14:58;;;;;;;4.13;3.40;;;7.40;99.90;;;;;;5278947;27;20231;-69
2024/04/25 07:17:23;;;;;;;3.13;2.87;;;7.60;99.90;;;;;;5306583;27;21138;-69
2024/04/25 07:19:49;;;;;;;4.97;4.13;;;7.90;99.90;;;;;;5288930;27;20237;-69
2024/04/25 07:22:15;;;;;;;4.40;4.07;;;7.90;99.90;;;;;;5304858;26;20222;-69
2024/04/25 07:24:42;;;;;;;3.00;2.80;;;7.80;99.90;;;;;;5307711;26;20521;-69
2024/04/25 07:27:07;;;;;;;4.37;3.30;;;7.80;99.90;;;;;;5304017;26;21045;-69
2024/04/25 07:29:33;;;;;;;4.70;2.83;;;7.60;99.90;;;;;;5303453;26;20473;-69
2024/04/25 07:31:59;;;;;;;3.80;3.00;;;7.40;99.90;;;;;;5280280;26;20269;-70
2024/04/25 07:34:24;;;;;;;2.80;2.60;;;7.40;99.90;;;;;;5275960;27;20744;-70
2024/04/25 07:36:50;;;;;;;4.40;2.80;;;7.60;99.90;;;;;;5299400;27;20238;-70
2024/04/25 07:39:15;;;;;;;4.87;4.20;;;7.80;99.90;;;;;;5308631;26;20222;-70
2024/04/25 07:41:41;;;;;;;4.60;2.90;;;7.80;99.90;;;;;;5309543;26;20218;-70
2024/04/25 07:44:06;;;;;;;3.30;2.90;;;7.80;99.90;;;;;;5306133;26;20724;-70
2024/04/25 07:46:32;;;;;;;5.53;3.63;;;7.80;99.90;;;;;;5302947;26;20267;-70
2024/04/25 07:48:58;;;;;;;8.10;2.93;;;8.00;99.90;;;;;;5305772;26;20364;-70
2024/04/25 07:51:23;;;;;;;5.53;3.30;;;8.20;99.90;;;;;;5306665;26;20472;-70
2024/04/25 07:53:49;;;;;;;6.60;3.13;;;7.90;99.90;;;;;;5309742;26;20222;-70
2024/04/25 07:56:14;;;;;;;2.93;2.73;;;7.90;99.90;;;;;;5294568;26;20222;-69
2024/04/25 07:58:40;;;;;;;3.57;2.93;;;7.90;99.90;;;;;;5284659;26;20725;-70
2024/04/25 08:01:05;;;;;;;5.07;2.80;;;7.90;99.90;;;;;;5295416;27;20798;-70
2024/04/25 08:03:31;;;;;;;3.60;3.30;;;7.80;99.90;;;;;;5309774;26;20226;-70
2024/04/25 08:05:56;;;;;;;3.27;2.97;;;7.90;99.90;;;;;;5293041;26;20672;-70
2024/04/25 08:08:22;;;;;;;4.07;3.40;;;8.10;99.90;;;;;;5296766;27;20265;-70
2024/04/25 08:10:48;;;;;;;4.20;3.17;;;8.30;99.90;;;;;;5306131;26;20332;-70
2024/04/25 08:13:16;;;;;;;3.80;3.33;;;8.30;99.90;;;;;;5308919;26;20461;-70
2024/04/25 08:15:43;;;;;;;3.70;3.13;;;8.30;99.90;;;;;;5305895;26;20670;-70
2024/04/25 08:18:09;;;;;;;3.57;2.90;;;8.40;99.90;;;;;;5317223;26;20452;-70
2024/04/25 08:20:35;;;;;;;3.27;2.97;;;8.60;99.90;;;;;;5347082;26;20941;-70
2024/04/25 08:23:00;;;;;;;4.20;2.93;;;8.50;99.90;;;;;;5329568;26;20230;-70
2024/04/25 08:25:26;;;;;;;3.17;2.93;;;8.50;99.90;;;;;;5293496;26;20223;-70
2024/04/25 08:27:53;;;;;;;3.70;3.10;;;8.70;99.90;;;;;;5294334;27;20262;-70
2024/04/25 08:30:19;;;;;;;4.10;2.70;;;8.60;99.90;;;;;;5303491;26;20473;-70
2024/04/25 08:32:45;;;;;;;5.90;5.17;;;8.50;99.90;;;;;;5312435;26;20501;-70
2024/04/25 08:35:10;;;;;;;4.07;3.20;;;8.70;99.90;;;;;;5296018;26;20586;-70
2024/04/25 08:37:36;;;;;;;4.63;3.40;;;8.60;99.90;;;;;;5278375;27;20572;-71
2024/04/25 08:40:03;;;;;;;2.60;2.40;;;9.00;99.90;;;;;;5282977;27;20253;-70
2024/04/25 08:42:29;;;;;;;4.33;2.60;;;9.40;99.90;;;;;;5304452;26;20765;-70
2024/04/25 08:44:55;;;;;;;4.53;3.27;;;9.60;99.90;;;;;;5296293;27;20465;-70
2024/04/25 08:47:20;;;;;;;3.77;3.20;;;10.00;99.90;;;;;;5280461;26;20525;-70
2024/04/25 08:49:47;;;;;;;4.47;2.93;;;9.70;99.90;;;;;;5307414;26;20281;-70
2024/04/25 08:52:15;;;;;;;7.20;2.67;;;9.60;99.90;;;;;;5300612;26;20350;-70
2024/04/25 08:54:41;;;;;;;3.93;2.63;;;9.50;99.90;;;;;;5278593;27;20883;-70
2024/04/25 08:57:07;;;;;;;6.23;3.00;;;9.10;99.90;;;;;;5282833;27;20578;-70
2024/04/25 08:59:33;;;;;;;3.57;3.00;;;8.70;99.90;;;;;;5293306;27;20478;-70
2024/04/25 09:01:59;;;;;;;3.10;2.70;;;8.60;99.90;;;;;;5307293;27;20326;-70
2024/04/25 09:04:27;;;;;;;2.63;2.40;;;8.40;99.90;;;;;;5290346;27;20470;-69
2024/04/25 09:06:53;;;;;;;3.70;2.73;;;8.50;99.90;;;;;;5285946;27;20670;-70
2024/04/25 09:09:22;;;;;;;5.20;3.60;;;9.10;99.90;;;;;;5300098;26;20462;-70
2024/04/25 09:11:54;;;;;;;3.53;2.63;;;9.20;99.90;;;;;;5278760;26;20563;-70
2024/04/25 09:14:20;;;;;;;3.90;2.60;;;9.30;99.90;;;;;;5278177;27;20450;-70
2024/04/25 09:16:45;;;;;;;6.60;2.67;;;9.70;99.90;;;;;;5283934;27;20458;-70
2024/04/25 09:19:11;;;;;;;3.90;2.27;;;10.00;99.90;;;;;;5276942;27;20235;-70
2024/04/25 09:21:37;;;;;;;3.60;2.40;;;10.00;99.90;;;;;;5295530;27;20218;-69
2024/04/25 09:24:02;;;;;;;3.23;2.53;;;10.30;99.90;;;;;;5288647;27;20251;-69
2024/04/25 09:26:30;;;;;;;6.20;3.17;;;9.90;99.90;;;;;;5278719;27;21102;-68
2024/04/25 09:28:56;;;;;;;3.50;2.43;;;9.90;99.90;;;;;;5297298;27;20561;-68
2024/04/25 09:31:22;;;;;;;2.40;2.20;;;9.70;99.90;;;;;;5289511;26;20562;-68
2024/04/25 09:33:47;;;;;;;8.23;3.30;;;9.50;99.90;;;;;;5276722;27;20458;-68
2024/04/25 09:36:13;;;;;;;3.53;2.37;;;9.40;99.90;;;;;;5279328;27;20223;-68
2024/04/25 09:38:40;;;;;;;3.40;2.43;;;9.40;99.90;;;;;;5286542;27;20273;-68
2024/04/25 09:41:08;;;;;;;3.70;2.47;;;9.10;99.90;;;;;;5286301;27;20453;-68
2024/04/25 09:43:34;;;;;;;3.13;2.83;;;8.80;99.90;;;;;;5304972;26;20520;-68
2024/04/25 09:46:04;;;;;;;3.50;3.20;;;8.50;99.90;;;;;;5285108;27;20896;-68
2024/04/25 09:48:33;;;;;;;5.53;2.70;;;8.40;99.90;;;;;;5309453;26;20518;-68
2024/04/25 09:51:13;;;;;;;3.10;2.90;;;8.60;99.90;;;;;;5304384;26;20879;-70
2024/04/25 09:53:54;;;;;;;2.50;1.93;;;8.80;99.90;;;;;;5288934;27;20514;-70
2024/04/25 09:56:25;;;;;;;3.87;2.50;;;8.70;99.90;;;;;;5292786;27;20450;-66
2024/04/25 09:59:03;;;;;;;2.60;1.90;;;8.90;99.90;;;;;;5277322;27;20502;-66
2024/04/25 10:01:30;;;;;;;2.83;2.10;;;9.20;99.90;;;;;;5292483;27;20457;-68
2024/04/25 10:03:56;;;;;;;2.53;1.70;;;9.40;99.90;;;;;;5292024;26;20540;-68
2024/04/25 10:06:22;;;;;;;1.57;1.37;;;9.50;99.90;;;;;;5304493;27;20537;-71
2024/04/25 10:08:48;;;;;;;2.83;2.20;;;9.90;99.90;;;;;;5310824;26;20529;-70
2024/04/25 10:11:14;;;;;;;2.63;1.47;;;10.50;99.90;;;;;;5304997;26;20573;-65
2024/04/25 10:13:49;;;;;;;2.60;1.77;;;11.80;99.90;;;;;;5298076;26;20544;-65
2024/04/25 10:16:18;;;;;;;3.90;2.00;;;12.70;94.20;;;;;;5293927;26;20223;-64
2024/04/25 10:18:48;;;;;;;3.43;2.20;;;12.10;94.80;;;;;;5276812;27;20572;-65
2024/04/25 10:21:13;;;;;;;3.00;2.60;;;12.40;95.20;;;;;;5279324;27;20458;-65
2024/04/25 10:23:39;;;;;;;3.27;2.17;;;12.50;94.00;;;;;;5276759;27;20439;-65
2024/04/25 10:26:18;;;;;;;2.33;2.13;;;12.20;96.40;;;;;;5283150;27;20226;-65
2024/04/25 10:28:58;;;;;;;2.70;2.50;;;12.00;95.90;;;;;;5310765;26;20604;-65
2024/04/25 10:31:36;;;;;;;4.10;2.47;;;12.10;92.90;;;;;;5310944;26;20839;-65
2024/04/25 10:34:03;;;;;;;2.30;2.20;;;12.10;88.80;;;;;;5297664;26;20507;-65
2024/04/25 10:36:29;;;;;;;1.80;1.70;;;12.30;84.60;;;;;;5281522;27;20549;-65
2024/04/25 10:38:58;;;;;;;2.60;2.40;;;12.60;87.10;;;;;;5310895;26;20445;-65
2024/04/25 10:41:35;;;;;;;3.50;2.53;;;12.60;90.30;;;;;;5310623;26;20821;-65
2024/04/25 10:44:01;;;;;;;5.13;2.50;;;12.80;83.90;;;;;;5311086;26;20445;-65
2024/04/25 10:46:27;;;;;;;2.00;1.90;;;12.80;79.30;;;;;;5311573;26;20453;-66
2024/04/25 10:48:52;;;;;;;4.30;2.10;;;13.00;82.90;;;;;;5288717;26;20514;-65
2024/04/25 10:51:19;;;;;;;3.00;2.20;;;13.00;75.60;;;;;;5277202;27;20227;-65
2024/04/25 10:53:45;;;;;;;2.50;2.30;;;12.80;72.60;;;;;;5277256;27;20211;-65
2024/04/25 10:56:10;;;;;;;4.23;2.70;;;12.40;71.00;;;;;;5301149;27;20453;-65
2024/04/25 10:58:36;;;;;;;1.83;1.57;;;12.40;72.80;;;;;;5311067;26;20234;-65
2024/04/25 11:01:01;;;;;;;2.20;2.10;;;12.70;72.90;;;;;;5311219;26;20229;-65
2024/04/25 11:03:27;;;;;;;1.87;1.70;;;12.80;68.70;;;;;;5298354;26;20270;-65
2024/04/25 11:05:53;;;;;;;3.30;2.00;;;13.10;64.30;;;;;;5276909;27;20215;-65
2024/04/25 11:08:19;;;;;;;1.70;1.60;;;13.00;66.90;;;;;;5288110;27;20230;-65
2024/04/25 11:10:45;;;;;;;1.93;1.60;;;13.40;59.50;;;;;;5283975;26;20960;-65
2024/04/25 11:13:11;;;;;;;2.77;2.20;;;13.80;58.50;;;;;;5276374;26;20231;-65
2024/04/25 11:15:41;;;;;;;5.63;2.27;;;15.10;55.00;;;;;;5276114;27;20216;-66
2024/04/25 11:18:07;;;;;;;2.50;2.30;;;16.30;48.50;;;;;;5286201;27;20456;-65
2024/04/25 11:20:33;;;;;;;4.63;2.27;;;15.70;48.20;;;;;;5308855;26;20517;-65
2024/04/25 11:23:13;;;;;;;2.20;2.10;;;14.80;45.60;;;;;;5301501;26;20227;-65
2024/04/25 11:25:39;;;;;;;2.40;2.20;;;14.70;47.10;;;;;;5276092;27;20518;-65
2024/04/25 11:28:05;;;;;;;2.03;1.83;;;14.40;49.10;;;;;;5282647;27;20472;-65
2024/04/25 11:30:30;;;;;;;2.57;2.10;;;14.20;47.60;;;;;;5291330;27;20339;-66
2024/04/25 11:33:01;;;;;;;2.80;1.73;;;14.70;48.00;;;;;;5284305;27;20346;-66
2024/04/25 11:35:27;;;;;;;3.40;1.97;;;14.80;48.00;;;;;;5280613;27;20668;-66
2024/04/25 11:37:54;;;;;;;1.70;1.60;;;14.00;50.10;;;;;;5303329;27;21026;-66
2024/04/25 11:40:38;;;;;;;2.87;2.67;;;13.30;50.60;;;;;;5295232;27;20541;-66
2024/04/25 11:43:04;;;;;;;1.90;1.80;;;12.90;55.60;;;;;;5289019;26;20454;-66
2024/04/25 11:45:31;;;;;;;4.37;1.80;;;12.50;60.00;;;;;;5297846;26;20543;-66
2024/04/25 11:47:57;;;;;;;2.03;1.90;;;11.90;58.20;;;;;;5278349;27;20553;-65
2024/04/25 11:50:22;;;;;;;1.60;1.50;;;11.90;61.50;;;;;;5309828;26;20449;-66
2024/04/25 11:52:48;;;;;;;2.30;1.73;;;11.90;58.80;;;;;;5295502;26;20223;-65
2024/04/25 11:55:13;;;;;;;2.47;1.87;;;11.70;55.50;;;;;;5292385;27;20228;-66
2024/04/25 11:57:39;;;;;;;3.33;2.10;;;11.60;57.90;;;;;;5281432;27;20341;-66
2024/04/25 12:00:05;;;;;;;2.10;1.90;;;11.80;56.00;;;;;;5305242;26;20222;-65
2024/04/25 12:02:30;;;;;;;3.20;1.80;;;12.30;56.20;;;;;;5303948;26;20220;-65
2024/04/25 12:04:56;;;;;;;1.80;1.70;;;12.90;51.20;;;;;;5297808;27;20512;-66
2024/04/25 12:07:21;;;;;;;2.10;1.93;;;13.70;51.00;;;;;;5287346;26;20224;-66
2024/04/25 12:09:47;;;;;;;2.17;2.03;;;14.20;47.20;;;;;;5281738;27;20223;-65
2024/04/25 12:12:12;;;;;;;1.77;1.67;;;13.60;47.40;;;;;;5305328;27;20266;-66
2024/04/25 12:14:38;;;;;;;3.40;1.70;;;13.00;49.80;;;;;;5305769;26;20246;-66
2024/04/25 12:17:05;;;;;;;2.27;1.77;;;13.00;51.90;;;;;;5301435;26;20229;-66
2024/04/25 12:19:32;;;;;;;2.70;2.23;;;13.40;51.60;;;;;;5293100;26;20232;-66
2024/04/25 12:21:58;;;;;;;3.20;2.37;;;13.70;50.10;;;;;;5305796;27;20453;-65
2024/04/25 12:24:23;;;;;;;3.90;2.47;;;14.00;51.10;;;;;;5292178;26;20860;-66
2024/04/25 12:26:49;;;;;;;7.50;5.03;;;14.70;51.00;;;;;;5287614;26;20458;-66
2024/04/25 12:29:14;;;;;;;2.23;2.03;;;14.80;49.30;;;;;;5301415;27;20222;-66
2024/04/25 12:31:40;;;;;;;2.90;2.10;;;15.20;47.70;;;;;;5303787;26;20334;-66
2024/04/25 12:34:05;;;;;;;3.47;2.60;;;16.90;44.80;;;;;;5279331;26;20227;-66
2024/04/25 12:36:31;;;;;;;2.57;2.40;;;17.00;42.30;;;;;;5295275;27;20230;-66
2024/04/25 12:38:56;;;;;;;4.77;2.10;;;16.70;42.30;;;;;;5288448;26;20225;-66
2024/04/25 12:41:22;;;;;;;3.10;2.30;;;17.10;41.10;;;;;;5299695;27;20238;-66
2024/04/25 12:43:49;;;;;;;2.70;2.13;;;16.60;40.20;;;;;;5307105;26;20241;-66
2024/04/25 12:46:15;;;;;;;2.37;2.17;;;15.70;42.60;;;;;;5293868;27;20614;-66
2024/04/25 12:48:43;;;;;;;2.23;2.13;;;15.40;42.60;;;;;;5295880;26;20514;-66
2024/04/25 12:51:08;;;;;;;2.30;2.10;;;14.20;44.90;;;;;;5292708;27;20853;-65
2024/04/25 12:53:34;;;;;;;2.93;2.73;;;13.10;47.60;;;;;;5284204;27;20462;-65